首页
METAR-TAF:

METAR-TAF

机场 :

尼维斯, 安提瓜和巴布达

纬度: 17-12N, 经度: 062-35W, 海拔: 17米

当前天气观测

该预报发布于11小时和31分钟前的23:00 UTC
风速14节,风向东转东北
温度 28°C
湿度 89%
气压 1013 hPa
能见度10公里或以上
多云层高于1300英尺

METAR: TKPN 212300Z 07014KT 9999 BKN013 28/26 Q1013

时间: 06:31 (10:31 UTC)

预报

该预报发布于17小时和31分钟前的17:00 UTC
预报有效从21日的 18点(UTC)到 22日的 18点(UTC)
风速13节,风向
能见度10公里或以上
散云层高于1800英尺
几率 40% :
短暂存在
从 21日的 18点(UTC)到 22日的 03点(UTC)
阵雨,

TAF: TKPN 211700Z 2118/2218 09013KT 9999 SCT018 PROB40 TEMPO 2118/2203 SHRA

超过4000个机场的气象观测和天气预报(METAR&TAF报告)。

可查询的气象台以黄色和红色小点在地图上表示。

将鼠标移到小点上方,可查看气象台名称。

然后点击查看天气观测和预报。

如需切换地图:点击带黑十字的绿色按钮放大地图;点击带横线的绿色按钮缩小地图;或者点击绿色箭头查看邻近地区的地图。


METAR-TAF: